sensor_id;sensor_type;location;lat;lon;timestamp;P1;durP1;ratioP1;P2;durP2;ratioP2
15553;SDS011;7878;44.632;10.942;2022-08-19T00:00:25;31.80;;;27.45;;
15553;SDS011;7878;44.632;10.942;2022-08-19T00:02:52;31.88;;;28.65;;
15553;SDS011;7878;44.632;10.942;2022-08-19T00:05:18;30.88;;;27.67;;
15553;SDS011;7878;44.632;10.942;2022-08-19T00:07:45;29.40;;;26.52;;
15553;SDS011;7878;44.632;10.942;2022-08-19T00:10:12;30.38;;;27.20;;
15553;SDS011;7878;44.632;10.942;2022-08-19T00:12:39;29.13;;;26.27;;
15553;SDS011;7878;44.632;10.942;2022-08-19T00:15:06;28.65;;;25.92;;
15553;SDS011;7878;44.632;10.942;2022-08-19T00:17:36;28.25;;;25.75;;
15553;SDS011;7878;44.632;10.942;2022-08-19T00:20:04;27.02;;;24.40;;
15553;SDS011;7878;44.632;10.942;2022-08-19T00:22:30;25.52;;;23.05;;
15553;SDS011;7878;44.632;10.942;2022-08-19T00:24:56;27.85;;;25.00;;
15553;SDS011;7878;44.632;10.942;2022-08-19T00:27:22;29.13;;;26.38;;
15553;SDS011;7878;44.632;10.942;2022-08-19T00:29:47;25.77;;;23.30;;
15553;SDS011;7878;44.632;10.942;2022-08-19T00:32:13;24.65;;;22.17;;
15553;SDS011;7878;44.632;10.942;2022-08-19T00:34:39;22.90;;;20.70;;
15553;SDS011;7878;44.632;10.942;2022-08-19T00:37:04;18.85;;;16.95;;
15553;SDS011;7878;44.632;10.942;2022-08-19T00:39:30;17.05;;;14.00;;
15553;SDS011;7878;44.632;10.942;2022-08-19T00:41:56;13.93;;;12.60;;
15553;SDS011;7878;44.632;10.942;2022-08-19T00:44:26;15.55;;;13.95;;
15553;SDS011;7878;44.632;10.942;2022-08-19T00:46:53;13.52;;;12.25;;
15553;SDS011;7878;44.632;10.942;2022-08-19T00:51:50;14.82;;;13.13;;
15553;SDS011;7878;44.632;10.942;2022-08-19T00:54:20;12.35;;;10.52;;
15553;SDS011;7878;44.632;10.942;2022-08-19T00:56:46;12.20;;;9.73;;
15553;SDS011;7878;44.632;10.942;2022-08-19T00:59:13;13.88;;;9.43;;
15553;SDS011;7878;44.632;10.942;2022-08-19T01:01:42;14.13;;;8.93;;
15553;SDS011;7878;44.632;10.942;2022-08-19T01:04:09;15.30;;;9.60;;
15553;SDS011;7878;44.632;10.942;2022-08-19T01:06:35;11.25;;;8.30;;
15553;SDS011;7878;44.632;10.942;2022-08-19T01:09:02;13.10;;;8.18;;
15553;SDS011;7878;44.632;10.942;2022-08-19T01:11:30;9.98;;;7.75;;
15553;SDS011;7878;44.632;10.942;2022-08-19T01:13:59;12.30;;;7.55;;
15553;SDS011;7878;44.632;10.942;2022-08-19T01:16:25;9.25;;;6.40;;
15553;SDS011;7878;44.632;10.942;2022-08-19T01:18:54;9.85;;;6.88;;
15553;SDS011;7878;44.632;10.942;2022-08-19T01:23:57;14.20;;;7.18;;
15553;SDS011;7878;44.632;10.942;2022-08-19T01:26:24;12.27;;;7.45;;
15553;SDS011;7878;44.632;10.942;2022-08-19T01:28:52;11.48;;;7.25;;
15553;SDS011;7878;44.632;10.942;2022-08-19T01:31:21;11.10;;;6.55;;
15553;SDS011;7878;44.632;10.942;2022-08-19T01:33:49;9.40;;;6.10;;
15553;SDS011;7878;44.632;10.942;2022-08-19T01:36:38;10.73;;;6.20;;
15553;SDS011;7878;44.632;10.942;2022-08-19T01:39:08;13.40;;;6.00;;
15553;SDS011;7878;44.632;10.942;2022-08-19T01:41:36;9.30;;;5.72;;
15553;SDS011;7878;44.632;10.942;2022-08-19T01:44:04;12.48;;;6.82;;
15553;SDS011;7878;44.632;10.942;2022-08-19T01:46:31;33.13;;;8.00;;
15553;SDS011;7878;44.632;10.942;2022-08-19T01:48:57;13.02;;;7.75;;
15553;SDS011;7878;44.632;10.942;2022-08-19T01:51:23;10.93;;;7.03;;
15553;SDS011;7878;44.632;10.942;2022-08-19T01:53:49;13.52;;;7.30;;
15553;SDS011;7878;44.632;10.942;2022-08-19T01:56:16;9.55;;;6.25;;
15553;SDS011;7878;44.632;10.942;2022-08-19T01:58:49;12.23;;;6.47;;
15553;SDS011;7878;44.632;10.942;2022-08-19T02:01:20;10.00;;;5.85;;
15553;SDS011;7878;44.632;10.942;2022-08-19T02:03:46;11.20;;;6.10;;
15553;SDS011;7878;44.632;10.942;2022-08-19T02:06:12;8.35;;;5.78;;
15553;SDS011;7878;44.632;10.942;2022-08-19T02:08:39;9.20;;;5.93;;
15553;SDS011;7878;44.632;10.942;2022-08-19T02:11:05;11.90;;;6.00;;
15553;SDS011;7878;44.632;10.942;2022-08-19T02:13:32;7.88;;;5.95;;
15553;SDS011;7878;44.632;10.942;2022-08-19T02:15:58;6.53;;;4.85;;
15553;SDS011;7878;44.632;10.942;2022-08-19T02:18:24;11.43;;;5.68;;
15553;SDS011;7878;44.632;10.942;2022-08-19T02:20:51;7.47;;;4.70;;
15553;SDS011;7878;44.632;10.942;2022-08-19T02:23:17;6.50;;;4.78;;
15553;SDS011;7878;44.632;10.942;2022-08-19T02:25:43;11.02;;;5.35;;
15553;SDS011;7878;44.632;10.942;2022-08-19T02:28:11;8.93;;;4.22;;
15553;SDS011;7878;44.632;10.942;2022-08-19T02:30:37;6.80;;;4.22;;
15553;SDS011;7878;44.632;10.942;2022-08-19T02:33:03;7.75;;;3.20;;
15553;SDS011;7878;44.632;10.942;2022-08-19T02:35:30;6.40;;;2.50;;
15553;SDS011;7878;44.632;10.942;2022-08-19T02:37:56;5.30;;;2.30;;
15553;SDS011;7878;44.632;10.942;2022-08-19T02:40:40;4.40;;;1.92;;
15553;SDS011;7878;44.632;10.942;2022-08-19T02:43:06;5.28;;;2.38;;
15553;SDS011;7878;44.632;10.942;2022-08-19T02:45:37;7.35;;;2.20;;
15553;SDS011;7878;44.632;10.942;2022-08-19T02:48:05;9.10;;;2.22;;
15553;SDS011;7878;44.632;10.942;2022-08-19T02:50:31;4.53;;;2.20;;
15553;SDS011;7878;44.632;10.942;2022-08-19T02:52:57;7.65;;;2.30;;
15553;SDS011;7878;44.632;10.942;2022-08-19T02:55:23;5.00;;;2.63;;
15553;SDS011;7878;44.632;10.942;2022-08-19T02:57:48;3.63;;;1.98;;
15553;SDS011;7878;44.632;10.942;2022-08-19T03:00:15;5.45;;;1.98;;
15553;SDS011;7878;44.632;10.942;2022-08-19T03:02:41;3.50;;;1.92;;
15553;SDS011;7878;44.632;10.942;2022-08-19T03:05:08;4.47;;;1.88;;
15553;SDS011;7878;44.632;10.942;2022-08-19T03:07:35;4.88;;;2.10;;
15553;SDS011;7878;44.632;10.942;2022-08-19T03:10:01;4.72;;;2.40;;
15553;SDS011;7878;44.632;10.942;2022-08-19T03:12:28;7.07;;;2.17;;
15553;SDS011;7878;44.632;10.942;2022-08-19T03:14:53;7.60;;;2.47;;
15553;SDS011;7878;44.632;10.942;2022-08-19T03:17:19;2.88;;;1.95;;
15553;SDS011;7878;44.632;10.942;2022-08-19T03:19:45;4.57;;;2.15;;
15553;SDS011;7878;44.632;10.942;2022-08-19T03:22:11;4.05;;;2.08;;
15553;SDS011;7878;44.632;10.942;2022-08-19T03:24:37;4.60;;;2.03;;
15553;SDS011;7878;44.632;10.942;2022-08-19T03:27:03;5.55;;;2.00;;
15553;SDS011;7878;44.632;10.942;2022-08-19T03:29:29;4.45;;;1.75;;
15553;SDS011;7878;44.632;10.942;2022-08-19T03:31:57;7.80;;;2.20;;
15553;SDS011;7878;44.632;10.942;2022-08-19T03:34:26;7.05;;;2.88;;
15553;SDS011;7878;44.632;10.942;2022-08-19T03:36:55;4.88;;;2.38;;
15553;SDS011;7878;44.632;10.942;2022-08-19T03:39:23;7.55;;;2.10;;
15553;SDS011;7878;44.632;10.942;2022-08-19T03:41:50;6.88;;;2.28;;
15553;SDS011;7878;44.632;10.942;2022-08-19T03:44:21;9.80;;;2.47;;
15553;SDS011;7878;44.632;10.942;2022-08-19T03:46:52;7.90;;;2.58;;
15553;SDS011;7878;44.632;10.942;2022-08-19T03:49:20;7.22;;;2.50;;
15553;SDS011;7878;44.632;10.942;2022-08-19T03:51:48;5.93;;;2.60;;
15553;SDS011;7878;44.632;10.942;2022-08-19T03:54:15;6.22;;;2.55;;
15553;SDS011;7878;44.632;10.942;2022-08-19T03:56:44;4.68;;;2.40;;
15553;SDS011;7878;44.632;10.942;2022-08-19T03:59:13;7.18;;;2.65;;
15553;SDS011;7878;44.632;10.942;2022-08-19T04:01:41;6.63;;;2.78;;
15553;SDS011;7878;44.632;10.942;2022-08-19T04:04:07;4.57;;;2.63;;
15553;SDS011;7878;44.632;10.942;2022-08-19T04:06:34;7.10;;;2.72;;
15553;SDS011;7878;44.632;10.942;2022-08-19T04:09:03;5.03;;;2.40;;
15553;SDS011;7878;44.632;10.942;2022-08-19T04:11:33;6.80;;;2.92;;
15553;SDS011;7878;44.632;10.942;2022-08-19T04:14:00;4.82;;;2.38;;
15553;SDS011;7878;44.632;10.942;2022-08-19T04:16:27;7.15;;;2.60;;
15553;SDS011;7878;44.632;10.942;2022-08-19T04:18:56;8.82;;;2.42;;
15553;SDS011;7878;44.632;10.942;2022-08-19T04:21:25;7.45;;;2.80;;
15553;SDS011;7878;44.632;10.942;2022-08-19T04:23:52;7.68;;;2.67;;
15553;SDS011;7878;44.632;10.942;2022-08-19T04:26:24;11.82;;;3.13;;
15553;SDS011;7878;44.632;10.942;2022-08-19T04:28:57;6.45;;;2.60;;
15553;SDS011;7878;44.632;10.942;2022-08-19T04:31:25;7.93;;;2.70;;
15553;SDS011;7878;44.632;10.942;2022-08-19T04:33:53;5.28;;;3.25;;
15553;SDS011;7878;44.632;10.942;2022-08-19T04:36:22;8.50;;;3.17;;
15553;SDS011;7878;44.632;10.942;2022-08-19T04:38:50;7.93;;;2.65;;
15553;SDS011;7878;44.632;10.942;2022-08-19T04:41:22;4.55;;;2.10;;
15553;SDS011;7878;44.632;10.942;2022-08-19T04:44:07;5.55;;;3.28;;
15553;SDS011;7878;44.632;10.942;2022-08-19T04:46:34;6.38;;;2.97;;
15553;SDS011;7878;44.632;10.942;2022-08-19T04:49:00;5.82;;;2.53;;
15553;SDS011;7878;44.632;10.942;2022-08-19T04:51:29;7.40;;;2.90;;
15553;SDS011;7878;44.632;10.942;2022-08-19T04:53:56;13.77;;;4.88;;
15553;SDS011;7878;44.632;10.942;2022-08-19T04:56:22;9.65;;;3.35;;
15553;SDS011;7878;44.632;10.942;2022-08-19T04:58:51;13.52;;;4.80;;
15553;SDS011;7878;44.632;10.942;2022-08-19T05:01:23;10.73;;;4.15;;
15553;SDS011;7878;44.632;10.942;2022-08-19T05:03:51;16.27;;;4.95;;
15553;SDS011;7878;44.632;10.942;2022-08-19T05:06:19;13.70;;;5.30;;
15553;SDS011;7878;44.632;10.942;2022-08-19T05:08:46;16.23;;;5.15;;
15553;SDS011;7878;44.632;10.942;2022-08-19T05:11:14;10.13;;;4.82;;
15553;SDS011;7878;44.632;10.942;2022-08-19T05:13:43;12.02;;;4.63;;
15553;SDS011;7878;44.632;10.942;2022-08-19T05:16:10;11.50;;;4.25;;
15553;SDS011;7878;44.632;10.942;2022-08-19T05:18:38;8.02;;;2.88;;
15553;SDS011;7878;44.632;10.942;2022-08-19T05:21:23;6.55;;;2.63;;
15553;SDS011;7878;44.632;10.942;2022-08-19T05:24:08;5.65;;;2.55;;
15553;SDS011;7878;44.632;10.942;2022-08-19T05:26:38;6.20;;;2.47;;
15553;SDS011;7878;44.632;10.942;2022-08-19T05:29:06;7.53;;;2.63;;
15553;SDS011;7878;44.632;10.942;2022-08-19T05:31:33;3.08;;;1.58;;
15553;SDS011;7878;44.632;10.942;2022-08-19T05:34:00;4.45;;;1.50;;
15553;SDS011;7878;44.632;10.942;2022-08-19T05:36:26;2.78;;;1.38;;
15553;SDS011;7878;44.632;10.942;2022-08-19T05:38:53;2.33;;;1.45;;
15553;SDS011;7878;44.632;10.942;2022-08-19T05:41:20;3.70;;;1.50;;
15553;SDS011;7878;44.632;10.942;2022-08-19T05:43:48;4.57;;;1.30;;
15553;SDS011;7878;44.632;10.942;2022-08-19T05:46:18;6.10;;;1.50;;
15553;SDS011;7878;44.632;10.942;2022-08-19T05:48:45;3.72;;;1.30;;
15553;SDS011;7878;44.632;10.942;2022-08-19T05:51:11;2.45;;;1.45;;
15553;SDS011;7878;44.632;10.942;2022-08-19T05:53:37;3.05;;;1.38;;
15553;SDS011;7878;44.632;10.942;2022-08-19T05:56:07;2.72;;;1.50;;
15553;SDS011;7878;44.632;10.942;2022-08-19T05:58:35;4.63;;;1.67;;
15553;SDS011;7878;44.632;10.942;2022-08-19T06:01:02;4.68;;;1.65;;
15553;SDS011;7878;44.632;10.942;2022-08-19T06:03:32;5.90;;;1.90;;
15553;SDS011;7878;44.632;10.942;2022-08-19T06:05:58;3.80;;;2.03;;
15553;SDS011;7878;44.632;10.942;2022-08-19T06:08:24;4.03;;;1.80;;
15553;SDS011;7878;44.632;10.942;2022-08-19T06:10:51;6.50;;;1.90;;
15553;SDS011;7878;44.632;10.942;2022-08-19T06:13:17;3.08;;;1.80;;
15553;SDS011;7878;44.632;10.942;2022-08-19T06:15:44;4.05;;;1.70;;
15553;SDS011;7878;44.632;10.942;2022-08-19T06:18:11;6.05;;;2.15;;
15553;SDS011;7878;44.632;10.942;2022-08-19T06:20:41;3.28;;;1.63;;
15553;SDS011;7878;44.632;10.942;2022-08-19T06:23:07;3.55;;;1.70;;
15553;SDS011;7878;44.632;10.942;2022-08-19T06:25:33;2.45;;;1.27;;
15553;SDS011;7878;44.632;10.942;2022-08-19T06:27:59;4.70;;;1.52;;
15553;SDS011;7878;44.632;10.942;2022-08-19T06:30:25;3.22;;;1.50;;
15553;SDS011;7878;44.632;10.942;2022-08-19T06:32:51;2.25;;;1.20;;
15553;SDS011;7878;44.632;10.942;2022-08-19T06:35:17;3.17;;;1.25;;
15553;SDS011;7878;44.632;10.942;2022-08-19T06:37:43;2.08;;;1.00;;
15553;SDS011;7878;44.632;10.942;2022-08-19T06:40:09;2.40;;;1.00;;
15553;SDS011;7878;44.632;10.942;2022-08-19T06:42:36;4.25;;;1.30;;
15553;SDS011;7878;44.632;10.942;2022-08-19T06:45:03;2.40;;;0.80;;
15553;SDS011;7878;44.632;10.942;2022-08-19T06:47:30;1.05;;;0.95;;
15553;SDS011;7878;44.632;10.942;2022-08-19T06:49:57;3.22;;;0.93;;
15553;SDS011;7878;44.632;10.942;2022-08-19T06:52:32;3.17;;;0.93;;
15553;SDS011;7878;44.632;10.942;2022-08-19T06:55:00;1.67;;;1.00;;
15553;SDS011;7878;44.632;10.942;2022-08-19T06:57:27;4.45;;;0.95;;
15553;SDS011;7878;44.632;10.942;2022-08-19T06:59:58;2.15;;;1.17;;
15553;SDS011;7878;44.632;10.942;2022-08-19T07:02:25;1.02;;;0.70;;
15553;SDS011;7878;44.632;10.942;2022-08-19T07:04:51;0.93;;;0.68;;
15553;SDS011;7878;44.632;10.942;2022-08-19T07:07:19;0.70;;;0.70;;
15553;SDS011;7878;44.632;10.942;2022-08-19T07:09:46;1.52;;;1.02;;
15553;SDS011;7878;44.632;10.942;2022-08-19T07:12:12;1.95;;;1.10;;
15553;SDS011;7878;44.632;10.942;2022-08-19T07:14:41;2.05;;;1.00;;
15553;SDS011;7878;44.632;10.942;2022-08-19T07:17:08;3.05;;;1.02;;
15553;SDS011;7878;44.632;10.942;2022-08-19T07:19:35;1.58;;;0.80;;
15553;SDS011;7878;44.632;10.942;2022-08-19T07:22:03;1.80;;;0.73;;
15553;SDS011;7878;44.632;10.942;2022-08-19T07:24:30;2.67;;;1.02;;
15553;SDS011;7878;44.632;10.942;2022-08-19T07:26:57;1.13;;;1.00;;
15553;SDS011;7878;44.632;10.942;2022-08-19T07:29:27;2.17;;;1.35;;
15553;SDS011;7878;44.632;10.942;2022-08-19T07:31:55;2.08;;;1.02;;
15553;SDS011;7878;44.632;10.942;2022-08-19T07:34:23;2.83;;;1.10;;
15553;SDS011;7878;44.632;10.942;2022-08-19T07:36:50;1.23;;;0.77;;
15553;SDS011;7878;44.632;10.942;2022-08-19T07:39:18;1.30;;;1.13;;
15553;SDS011;7878;44.632;10.942;2022-08-19T07:41:47;4.78;;;1.10;;
15553;SDS011;7878;44.632;10.942;2022-08-19T07:44:13;1.30;;;0.90;;
15553;SDS011;7878;44.632;10.942;2022-08-19T07:46:41;2.22;;;1.17;;
15553;SDS011;7878;44.632;10.942;2022-08-19T07:49:09;4.57;;;1.10;;
15553;SDS011;7878;44.632;10.942;2022-08-19T07:51:42;1.83;;;0.90;;
15553;SDS011;7878;44.632;10.942;2022-08-19T07:54:08;1.80;;;1.15;;
15553;SDS011;7878;44.632;10.942;2022-08-19T07:56:34;1.42;;;0.98;;
15553;SDS011;7878;44.632;10.942;2022-08-19T07:59:00;1.88;;;1.17;;
15553;SDS011;7878;44.632;10.942;2022-08-19T08:01:26;5.03;;;1.33;;
15553;SDS011;7878;44.632;10.942;2022-08-19T08:03:53;1.30;;;1.20;;
15553;SDS011;7878;44.632;10.942;2022-08-19T08:06:39;2.08;;;1.20;;
15553;SDS011;7878;44.632;10.942;2022-08-19T08:09:29;1.77;;;0.95;;
15553;SDS011;7878;44.632;10.942;2022-08-19T08:12:02;1.80;;;1.27;;
15553;SDS011;7878;44.632;10.942;2022-08-19T08:14:37;1.35;;;1.20;;
15553;SDS011;7878;44.632;10.942;2022-08-19T08:17:05;1.90;;;1.08;;
15553;SDS011;7878;44.632;10.942;2022-08-19T08:19:31;1.65;;;1.10;;
15553;SDS011;7878;44.632;10.942;2022-08-19T08:21:58;2.42;;;1.77;;
15553;SDS011;7878;44.632;10.942;2022-08-19T08:24:25;12.07;;;1.63;;
15553;SDS011;7878;44.632;10.942;2022-08-19T08:26:53;2.42;;;1.40;;
15553;SDS011;7878;44.632;10.942;2022-08-19T08:29:19;2.38;;;1.10;;
15553;SDS011;7878;44.632;10.942;2022-08-19T08:31:45;4.00;;;1.23;;
15553;SDS011;7878;44.632;10.942;2022-08-19T08:34:12;3.53;;;1.20;;
15553;SDS011;7878;44.632;10.942;2022-08-19T08:36:42;5.55;;;1.30;;
15553;SDS011;7878;44.632;10.942;2022-08-19T08:39:10;2.05;;;1.00;;
15553;SDS011;7878;44.632;10.942;2022-08-19T08:47:19;1.90;;;1.00;;
15553;SDS011;7878;44.632;10.942;2022-08-19T08:52:26;3.65;;;1.75;;
15553;SDS011;7878;44.632;10.942;2022-08-19T08:54:55;1.40;;;1.00;;
15553;SDS011;7878;44.632;10.942;2022-08-19T08:57:29;3.33;;;1.27;;
15553;SDS011;7878;44.632;10.942;2022-08-19T09:00:02;2.33;;;1.45;;
15553;SDS011;7878;44.632;10.942;2022-08-19T09:02:32;2.65;;;1.10;;
15553;SDS011;7878;44.632;10.942;2022-08-19T09:04:58;2.50;;;1.30;;
15553;SDS011;7878;44.632;10.942;2022-08-19T09:07:40;5.93;;;1.60;;
15553;SDS011;7878;44.632;10.942;2022-08-19T09:10:25;3.95;;;1.63;;
15553;SDS011;7878;44.632;10.942;2022-08-19T09:15:47;4.55;;;1.55;;
15553;SDS011;7878;44.632;10.942;2022-08-19T09:18:20;3.10;;;1.40;;
15553;SDS011;7878;44.632;10.942;2022-08-19T09:20:46;6.38;;;1.45;;
15553;SDS011;7878;44.632;10.942;2022-08-19T09:23:12;6.03;;;1.95;;
15553;SDS011;7878;44.632;10.942;2022-08-19T09:25:38;4.03;;;1.85;;
15553;SDS011;7878;44.632;10.942;2022-08-19T09:28:05;5.25;;;1.40;;
15553;SDS011;7878;44.632;10.942;2022-08-19T09:30:32;6.03;;;1.40;;
15553;SDS011;7878;44.632;10.942;2022-08-19T09:33:04;3.13;;;1.27;;
15553;SDS011;7878;44.632;10.942;2022-08-19T09:35:30;3.33;;;1.40;;
15553;SDS011;7878;44.632;10.942;2022-08-19T09:37:56;2.80;;;1.30;;
15553;SDS011;7878;44.632;10.942;2022-08-19T09:40:23;4.22;;;1.58;;
15553;SDS011;7878;44.632;10.942;2022-08-19T09:42:49;3.80;;;1.55;;
15553;SDS011;7878;44.632;10.942;2022-08-19T09:45:16;2.63;;;1.35;;
15553;SDS011;7878;44.632;10.942;2022-08-19T09:47:45;4.50;;;1.60;;
15553;SDS011;7878;44.632;10.942;2022-08-19T09:50:11;2.50;;;1.50;;
15553;SDS011;7878;44.632;10.942;2022-08-19T09:52:38;6.53;;;1.75;;
15553;SDS011;7878;44.632;10.942;2022-08-19T09:55:04;4.38;;;1.77;;
15553;SDS011;7878;44.632;10.942;2022-08-19T09:57:31;2.72;;;1.52;;
15553;SDS011;7878;44.632;10.942;2022-08-19T09:59:57;2.38;;;1.42;;
15553;SDS011;7878;44.632;10.942;2022-08-19T10:02:23;3.28;;;1.52;;
15553;SDS011;7878;44.632;10.942;2022-08-19T10:04:49;3.65;;;1.60;;
15553;SDS011;7878;44.632;10.942;2022-08-19T10:07:34;3.45;;;2.00;;
15553;SDS011;7878;44.632;10.942;2022-08-19T10:10:00;2.40;;;1.40;;
15553;SDS011;7878;44.632;10.942;2022-08-19T10:12:26;2.33;;;1.33;;
15553;SDS011;7878;44.632;10.942;2022-08-19T10:14:52;3.30;;;1.30;;
15553;SDS011;7878;44.632;10.942;2022-08-19T10:17:19;2.65;;;1.40;;
15553;SDS011;7878;44.632;10.942;2022-08-19T10:19:45;3.05;;;2.20;;
15553;SDS011;7878;44.632;10.942;2022-08-19T10:22:10;3.58;;;1.40;;
15553;SDS011;7878;44.632;10.942;2022-08-19T10:24:38;1.90;;;1.33;;
15553;SDS011;7878;44.632;10.942;2022-08-19T10:27:04;3.13;;;1.40;;
15553;SDS011;7878;44.632;10.942;2022-08-19T10:29:31;3.45;;;1.40;;
15553;SDS011;7878;44.632;10.942;2022-08-19T10:31:59;3.20;;;1.40;;
15553;SDS011;7878;44.632;10.942;2022-08-19T10:34:26;3.53;;;1.20;;
15553;SDS011;7878;44.632;10.942;2022-08-19T10:36:53;2.25;;;1.33;;
15553;SDS011;7878;44.632;10.942;2022-08-19T10:39:21;5.78;;;1.23;;
15553;SDS011;7878;44.632;10.942;2022-08-19T10:41:46;2.08;;;1.17;;
15553;SDS011;7878;44.632;10.942;2022-08-19T10:44:12;2.88;;;1.27;;
15553;SDS011;7878;44.632;10.942;2022-08-19T10:46:39;6.13;;;1.20;;
15553;SDS011;7878;44.632;10.942;2022-08-19T10:49:08;2.30;;;1.30;;
15553;SDS011;7878;44.632;10.942;2022-08-19T10:51:35;1.65;;;1.00;;
15553;SDS011;7878;44.632;10.942;2022-08-19T10:54:19;3.60;;;1.33;;
15553;SDS011;7878;44.632;10.942;2022-08-19T10:56:45;2.67;;;1.40;;
15553;SDS011;7878;44.632;10.942;2022-08-19T10:59:29;1.70;;;1.17;;
15553;SDS011;7878;44.632;10.942;2022-08-19T11:01:59;1.98;;;0.98;;
15553;SDS011;7878;44.632;10.942;2022-08-19T11:04:26;3.72;;;1.33;;
15553;SDS011;7878;44.632;10.942;2022-08-19T11:06:52;4.18;;;1.20;;
15553;SDS011;7878;44.632;10.942;2022-08-19T11:09:19;4.40;;;1.10;;
15553;SDS011;7878;44.632;10.942;2022-08-19T11:11:50;2.33;;;1.45;;
15553;SDS011;7878;44.632;10.942;2022-08-19T11:14:18;3.63;;;2.38;;
15553;SDS011;7878;44.632;10.942;2022-08-19T11:16:46;2.58;;;1.20;;
15553;SDS011;7878;44.632;10.942;2022-08-19T11:19:13;3.95;;;1.60;;
15553;SDS011;7878;44.632;10.942;2022-08-19T11:21:42;1.58;;;1.27;;
15553;SDS011;7878;44.632;10.942;2022-08-19T11:24:13;2.47;;;1.40;;
15553;SDS011;7878;44.632;10.942;2022-08-19T11:26:41;2.17;;;1.30;;
15553;SDS011;7878;44.632;10.942;2022-08-19T11:29:08;1.17;;;1.00;;
15553;SDS011;7878;44.632;10.942;2022-08-19T11:31:36;2.03;;;1.30;;
15553;SDS011;7878;44.632;10.942;2022-08-19T11:34:05;1.83;;;1.23;;
15553;SDS011;7878;44.632;10.942;2022-08-19T11:36:32;3.42;;;1.15;;
15553;SDS011;7878;44.632;10.942;2022-08-19T11:38:59;2.10;;;1.10;;
15553;SDS011;7878;44.632;10.942;2022-08-19T11:41:25;3.10;;;1.40;;
15553;SDS011;7878;44.632;10.942;2022-08-19T11:43:53;1.42;;;0.93;;
15553;SDS011;7878;44.632;10.942;2022-08-19T11:46:20;2.28;;;1.23;;
15553;SDS011;7878;44.632;10.942;2022-08-19T11:48:47;1.98;;;1.15;;
15553;SDS011;7878;44.632;10.942;2022-08-19T11:51:16;1.48;;;1.00;;
15553;SDS011;7878;44.632;10.942;2022-08-19T11:53:44;3.47;;;1.20;;
15553;SDS011;7878;44.632;10.942;2022-08-19T11:56:10;2.72;;;1.13;;
15553;SDS011;7878;44.632;10.942;2022-08-19T11:58:36;2.78;;;1.15;;
15553;SDS011;7878;44.632;10.942;2022-08-19T12:01:06;0.90;;;0.85;;
15553;SDS011;7878;44.632;10.942;2022-08-19T12:03:33;4.03;;;1.20;;
15553;SDS011;7878;44.632;10.942;2022-08-19T12:06:07;2.05;;;1.00;;
15553;SDS011;7878;44.632;10.942;2022-08-19T12:08:34;1.80;;;1.17;;
15553;SDS011;7878;44.632;10.942;2022-08-19T12:11:00;2.83;;;1.13;;
15553;SDS011;7878;44.632;10.942;2022-08-19T12:13:27;2.78;;;1.13;;
15553;SDS011;7878;44.632;10.942;2022-08-19T12:15:55;2.95;;;1.30;;
15553;SDS011;7878;44.632;10.942;2022-08-19T12:18:22;4.05;;;1.50;;
15553;SDS011;7878;44.632;10.942;2022-08-19T12:20:50;3.58;;;1.27;;
15553;SDS011;7878;44.632;10.942;2022-08-19T12:23:16;2.78;;;1.15;;
15553;SDS011;7878;44.632;10.942;2022-08-19T12:25:45;1.40;;;1.13;;
15553;SDS011;7878;44.632;10.942;2022-08-19T12:28:16;1.75;;;1.27;;
15553;SDS011;7878;44.632;10.942;2022-08-19T12:30:46;1.85;;;1.00;;
15553;SDS011;7878;44.632;10.942;2022-08-19T12:33:13;1.13;;;0.93;;
15553;SDS011;7878;44.632;10.942;2022-08-19T12:35:42;1.63;;;1.17;;
15553;SDS011;7878;44.632;10.942;2022-08-19T12:38:09;2.30;;;1.17;;
15553;SDS011;7878;44.632;10.942;2022-08-19T12:40:35;5.55;;;1.60;;
15553;SDS011;7878;44.632;10.942;2022-08-19T12:43:02;3.30;;;1.00;;
15553;SDS011;7878;44.632;10.942;2022-08-19T12:45:28;2.35;;;1.10;;
15553;SDS011;7878;44.632;10.942;2022-08-19T12:47:53;2.17;;;1.02;;
15553;SDS011;7878;44.632;10.942;2022-08-19T12:50:19;1.67;;;1.00;;
15553;SDS011;7878;44.632;10.942;2022-08-19T12:52:46;2.47;;;1.00;;
15553;SDS011;7878;44.632;10.942;2022-08-19T12:55:13;2.40;;;1.10;;
15553;SDS011;7878;44.632;10.942;2022-08-19T12:57:39;1.10;;;1.00;;
15553;SDS011;7878;44.632;10.942;2022-08-19T13:00:06;1.73;;;1.20;;
15553;SDS011;7878;44.632;10.942;2022-08-19T13:02:37;2.78;;;1.13;;
15553;SDS011;7878;44.632;10.942;2022-08-19T13:05:04;1.92;;;1.70;;
15553;SDS011;7878;44.632;10.942;2022-08-19T13:07:33;1.77;;;1.13;;
15553;SDS011;7878;44.632;10.942;2022-08-19T13:09:59;1.55;;;1.33;;
15553;SDS011;7878;44.632;10.942;2022-08-19T13:12:25;2.03;;;1.00;;
15553;SDS011;7878;44.632;10.942;2022-08-19T13:14:52;2.08;;;0.93;;
15553;SDS011;7878;44.632;10.942;2022-08-19T13:17:18;3.22;;;1.10;;
15553;SDS011;7878;44.632;10.942;2022-08-19T13:19:44;1.10;;;1.00;;
15553;SDS011;7878;44.632;10.942;2022-08-19T13:22:10;2.65;;;0.98;;
15553;SDS011;7878;44.632;10.942;2022-08-19T13:24:37;1.33;;;1.00;;
15553;SDS011;7878;44.632;10.942;2022-08-19T13:27:03;1.58;;;1.00;;
15553;SDS011;7878;44.632;10.942;2022-08-19T13:29:29;1.20;;;1.10;;
15553;SDS011;7878;44.632;10.942;2022-08-19T13:32:13;2.05;;;0.80;;
15553;SDS011;7878;44.632;10.942;2022-08-19T13:34:57;1.23;;;1.10;;
15553;SDS011;7878;44.632;10.942;2022-08-19T13:37:23;1.95;;;1.10;;
15553;SDS011;7878;44.632;10.942;2022-08-19T13:40:08;1.88;;;1.13;;
15553;SDS011;7878;44.632;10.942;2022-08-19T13:42:44;1.48;;;1.10;;
15553;SDS011;7878;44.632;10.942;2022-08-19T13:45:12;1.50;;;1.00;;
15553;SDS011;7878;44.632;10.942;2022-08-19T13:47:39;3.83;;;1.02;;
15553;SDS011;7878;44.632;10.942;2022-08-19T13:50:10;2.20;;;1.00;;
15553;SDS011;7878;44.632;10.942;2022-08-19T13:52:37;0.93;;;0.90;;
15553;SDS011;7878;44.632;10.942;2022-08-19T13:55:03;1.10;;;1.00;;
15553;SDS011;7878;44.632;10.942;2022-08-19T13:57:30;1.15;;;1.00;;
15553;SDS011;7878;44.632;10.942;2022-08-19T13:59:57;0.90;;;0.90;;
15553;SDS011;7878;44.632;10.942;2022-08-19T14:02:22;2.58;;;1.05;;
15553;SDS011;7878;44.632;10.942;2022-08-19T14:04:49;1.10;;;1.00;;
15553;SDS011;7878;44.632;10.942;2022-08-19T14:07:14;1.45;;;1.00;;
15553;SDS011;7878;44.632;10.942;2022-08-19T14:09:40;2.63;;;1.20;;
15553;SDS011;7878;44.632;10.942;2022-08-19T14:12:06;4.28;;;1.30;;
15553;SDS011;7878;44.632;10.942;2022-08-19T14:14:36;1.65;;;1.20;;
15553;SDS011;7878;44.632;10.942;2022-08-19T14:17:05;2.38;;;1.08;;
15553;SDS011;7878;44.632;10.942;2022-08-19T14:19:32;3.97;;;1.15;;
15553;SDS011;7878;44.632;10.942;2022-08-19T14:21:58;2.67;;;1.17;;
15553;SDS011;7878;44.632;10.942;2022-08-19T14:24:23;1.15;;;1.00;;
15553;SDS011;7878;44.632;10.942;2022-08-19T14:26:49;3.25;;;1.38;;
15553;SDS011;7878;44.632;10.942;2022-08-19T14:29:15;1.27;;;1.17;;
15553;SDS011;7878;44.632;10.942;2022-08-19T14:31:41;1.92;;;1.27;;
15553;SDS011;7878;44.632;10.942;2022-08-19T14:34:08;2.05;;;1.20;;
15553;SDS011;7878;44.632;10.942;2022-08-19T14:36:34;2.08;;;1.35;;
15553;SDS011;7878;44.632;10.942;2022-08-19T14:39:01;3.38;;;1.63;;
15553;SDS011;7878;44.632;10.942;2022-08-19T14:41:26;3.15;;;1.20;;
15553;SDS011;7878;44.632;10.942;2022-08-19T14:43:53;3.70;;;1.45;;
15553;SDS011;7878;44.632;10.942;2022-08-19T14:46:20;1.63;;;1.20;;
15553;SDS011;7878;44.632;10.942;2022-08-19T14:48:48;1.30;;;1.20;;
15553;SDS011;7878;44.632;10.942;2022-08-19T14:51:14;3.35;;;1.35;;
15553;SDS011;7878;44.632;10.942;2022-08-19T14:53:40;1.70;;;1.15;;
15553;SDS011;7878;44.632;10.942;2022-08-19T14:56:10;2.10;;;1.30;;
15553;SDS011;7878;44.632;10.942;2022-08-19T14:58:37;3.00;;;1.40;;
15553;SDS011;7878;44.632;10.942;2022-08-19T15:01:05;5.35;;;1.27;;
15553;SDS011;7878;44.632;10.942;2022-08-19T15:03:32;0.88;;;0.88;;
15553;SDS011;7878;44.632;10.942;2022-08-19T15:05:59;1.45;;;1.05;;